createdAt,value
2019-05-11T00:00:22.490Z,6.97
2019-05-11T00:01:57.407Z,7.03
2019-05-11T00:03:32.075Z,7.47
2019-05-11T00:05:08.081Z,6.63
2019-05-11T00:06:42.726Z,6.87
2019-05-11T00:08:17.642Z,6.90
2019-05-11T00:09:58.134Z,7.40
2019-05-11T00:11:28.841Z,7.07
2019-05-11T00:13:03.507Z,6.93
2019-05-11T00:14:38.508Z,7.33
2019-05-11T00:16:13.163Z,7.63
2019-05-11T00:17:47.986Z,6.97
2019-05-11T00:19:22.666Z,7.43
2019-05-11T00:20:57.542Z,7.27
2019-05-11T00:22:32.256Z,7.17
2019-05-11T00:24:07.089Z,7.60
2019-05-11T00:25:41.872Z,7.27
2019-05-11T00:27:16.699Z,7.50
2019-05-11T00:28:51.412Z,7.33
2019-05-11T00:30:26.261Z,7.67
2019-05-11T00:32:00.992Z,7.50
2019-05-11T00:33:35.815Z,8.07
2019-05-11T00:35:10.536Z,7.97
2019-05-11T00:36:45.388Z,7.27
2019-05-11T00:38:20.031Z,7.50
2019-05-11T00:39:54.882Z,7.40
2019-05-11T00:41:29.601Z,7.50
2019-05-11T00:43:04.657Z,7.63
2019-05-11T00:44:39.316Z,7.90
2019-05-11T00:46:14.245Z,7.67
2019-05-11T00:47:49.043Z,8.30
2019-05-11T00:49:23.890Z,7.70
2019-05-11T00:50:58.533Z,7.40
2019-05-11T00:52:33.365Z,7.50
2019-05-11T00:54:08.320Z,7.00
2019-05-11T00:55:43.217Z,8.23
2019-05-11T00:57:17.875Z,7.60
2019-05-11T00:58:52.707Z,7.30
2019-05-11T01:00:27.435Z,7.67
2019-05-11T01:02:02.272Z,7.23
2019-05-11T01:03:36.914Z,7.13
2019-05-11T01:05:11.957Z,7.13
2019-05-11T01:06:46.647Z,7.13
2019-05-11T01:08:21.526Z,6.30
2019-05-11T01:09:56.172Z,7.30
2019-05-11T01:11:31.008Z,7.93
2019-05-11T01:13:05.656Z,7.80
2019-05-11T01:14:40.466Z,7.03
2019-05-11T01:16:15.174Z,7.53
2019-05-11T01:17:50.038Z,7.17
2019-05-11T01:19:24.765Z,6.23
2019-05-11T01:20:59.760Z,6.93
2019-05-11T01:22:34.504Z,6.73
2019-05-11T01:24:09.348Z,6.83
2019-05-11T01:25:44.015Z,7.10
2019-05-11T01:27:18.831Z,6.70
2019-05-11T01:28:53.496Z,7.20
2019-05-11T01:30:28.314Z,6.47
2019-05-11T01:32:03.002Z,6.73
2019-05-11T01:33:37.838Z,6.47
2019-05-11T01:35:12.633Z,6.23
2019-05-11T01:36:47.447Z,6.60
2019-05-11T01:38:22.128Z,5.77
2019-05-11T01:39:56.938Z,6.17
2019-05-11T01:41:31.564Z,5.93
2019-05-11T01:43:06.412Z,5.97
2019-05-11T01:44:41.049Z,6.17
2019-05-11T01:46:15.947Z,6.13
2019-05-11T01:47:50.617Z,5.93
2019-05-11T01:49:25.450Z,6.70
2019-05-11T01:51:00.076Z,6.03
2019-05-11T01:52:34.896Z,6.33
2019-05-11T01:54:09.518Z,6.80
2019-05-11T01:55:44.424Z,6.30
2019-05-11T01:57:19.090Z,6.40
2019-05-11T01:58:53.913Z,6.27
2019-05-11T02:00:28.660Z,6.07
2019-05-11T02:02:03.618Z,6.17
2019-05-11T02:03:38.246Z,5.77
2019-05-11T02:05:29.296Z,6.47
2019-05-11T02:07:04.068Z,5.63
2019-05-11T02:08:38.906Z,6.10
2019-05-11T02:10:13.797Z,6.33
2019-05-11T02:11:48.621Z,6.17
2019-05-11T02:13:23.762Z,6.20
2019-05-11T02:14:58.596Z,5.87
2019-05-11T02:16:33.666Z,5.67
2019-05-11T02:18:08.653Z,6.23
2019-05-11T02:19:43.291Z,6.30
2019-05-11T02:21:18.127Z,6.20
2019-05-11T02:22:52.769Z,6.17
2019-05-11T02:24:27.970Z,5.77
2019-05-11T02:26:02.773Z,6.00
2019-05-11T02:27:37.699Z,6.20
2019-05-11T02:29:12.362Z,6.50
2019-05-11T02:30:47.192Z,6.83
2019-05-11T02:32:21.843Z,7.57
2019-05-11T02:33:56.674Z,6.43
2019-05-11T02:35:31.334Z,6.57
2019-05-11T02:37:06.170Z,6.60
2019-05-11T02:38:40.805Z,6.90
2019-05-11T02:40:16.014Z,7.23
2019-05-11T02:41:50.672Z,6.80
2019-05-11T02:43:25.504Z,6.53
2019-05-11T02:45:00.231Z,7.33
2019-05-11T02:46:36.266Z,7.13
2019-05-11T02:48:11.286Z,7.20
2019-05-11T02:49:46.117Z,7.17
2019-05-11T02:51:21.993Z,7.43
2019-05-11T02:52:57.208Z,7.03
2019-05-11T02:54:31.921Z,7.13
2019-05-11T02:56:06.812Z,7.17
2019-05-11T02:57:41.517Z,6.97
2019-05-11T02:59:16.365Z,7.30
2019-05-11T03:00:51.007Z,7.60
2019-05-11T03:02:27.370Z,7.30
2019-05-11T03:04:02.029Z,6.93
2019-05-11T03:05:37.016Z,7.20
2019-05-11T03:07:11.619Z,6.87
2019-05-11T03:08:46.474Z,6.40
2019-05-11T03:10:21.106Z,6.73
2019-05-11T03:11:56.563Z,6.53
2019-05-11T03:13:31.391Z,6.77
2019-05-11T03:15:06.835Z,6.70
2019-05-11T03:16:42.513Z,5.47
2019-05-11T03:18:17.459Z,5.90
2019-05-11T03:19:52.078Z,5.90
2019-05-11T03:21:26.927Z,5.47
2019-05-11T03:23:01.656Z,5.40
2019-05-11T03:24:36.500Z,5.30
2019-05-11T03:26:11.185Z,4.87
2019-05-11T03:27:46.138Z,5.10
2019-05-11T03:29:20.796Z,5.70
2019-05-11T03:30:55.688Z,5.40
2019-05-11T03:32:30.315Z,5.27
2019-05-11T03:34:05.230Z,6.17
2019-05-11T03:35:39.931Z,5.17
2019-05-11T03:37:14.750Z,5.27
2019-05-11T03:38:49.393Z,4.83
2019-05-11T03:40:24.236Z,4.87
2019-05-11T03:42:13.161Z,4.43
2019-05-11T03:43:35.438Z,5.30
2019-05-11T03:45:10.462Z,5.10
2019-05-11T03:46:45.388Z,4.60
2019-05-11T03:48:20.228Z,4.63
2019-05-11T03:49:55.133Z,4.80
2019-05-11T03:51:31.042Z,4.27
2019-05-11T03:53:06.484Z,4.17
2019-05-11T03:54:41.171Z,3.80
2019-05-11T03:56:16.028Z,4.30
2019-05-11T03:57:50.778Z,4.27
2019-05-11T03:59:25.610Z,4.17
2019-05-11T04:01:00.355Z,3.83
2019-05-11T04:02:35.270Z,3.63
2019-05-11T04:04:09.903Z,4.17
2019-05-11T04:05:44.749Z,3.87
2019-05-11T04:07:19.466Z,4.20
2019-05-11T04:08:54.411Z,4.20
2019-05-11T04:10:29.241Z,4.80
2019-05-11T04:12:04.159Z,4.00
2019-05-11T04:13:38.822Z,4.10
2019-05-11T04:15:14.296Z,3.70
2019-05-11T04:16:48.981Z,4.07
2019-05-11T04:18:23.841Z,4.10
2019-05-11T04:19:58.512Z,3.90
2019-05-11T04:21:33.406Z,4.67
2019-05-11T04:23:09.145Z,4.17
2019-05-11T04:24:44.011Z,3.80
2019-05-11T04:26:18.700Z,4.10
2019-05-11T04:27:53.597Z,4.40
2019-05-11T04:29:28.285Z,3.80
2019-05-11T04:31:03.196Z,3.83
2019-05-11T04:32:37.867Z,3.80
2019-05-11T04:34:12.740Z,3.90
2019-05-11T04:35:47.387Z,3.90
2019-05-11T04:37:22.243Z,4.33
2019-05-11T04:38:56.996Z,4.00
2019-05-11T04:40:31.818Z,3.60
2019-05-11T04:42:06.524Z,4.00
2019-05-11T04:43:41.330Z,4.00
2019-05-11T04:45:17.044Z,3.80
2019-05-11T04:46:51.994Z,3.90
2019-05-11T04:48:26.800Z,3.33
2019-05-11T04:50:01.708Z,3.43
2019-05-11T04:51:36.401Z,3.80
2019-05-11T04:53:11.214Z,3.17
2019-05-11T04:54:45.971Z,3.27
2019-05-11T04:56:20.810Z,3.20
2019-05-11T04:57:55.467Z,3.23
2019-05-11T04:59:30.303Z,3.13
2019-05-11T05:01:05.074Z,3.10
2019-05-11T05:02:39.900Z,3.17
2019-05-11T05:04:14.714Z,2.87
2019-05-11T05:05:49.627Z,3.23
2019-05-11T05:07:24.465Z,3.23
2019-05-11T05:09:03.744Z,3.10
2019-05-11T05:10:36.056Z,3.13
2019-05-11T05:12:14.026Z,3.20
2019-05-11T05:13:47.475Z,2.73
2019-05-11T05:15:22.394Z,2.97
2019-05-11T05:16:57.074Z,3.27
2019-05-11T05:18:33.572Z,2.80
2019-05-11T05:20:08.497Z,3.13
2019-05-11T05:21:43.442Z,3.00
2019-05-11T05:23:18.092Z,3.33
2019-05-11T05:24:52.954Z,2.80
2019-05-11T05:26:27.618Z,3.17
2019-05-11T05:28:02.518Z,2.90
2019-05-11T05:29:37.608Z,2.93
2019-05-11T05:31:12.497Z,2.70
2019-05-11T05:32:47.182Z,3.10
2019-05-11T05:34:21.996Z,3.00
2019-05-11T05:35:56.744Z,2.57
2019-05-11T05:37:31.714Z,2.70
2019-05-11T05:39:08.913Z,3.13
2019-05-11T05:40:44.237Z,3.40
2019-05-11T05:42:18.907Z,3.27
2019-05-11T05:43:53.787Z,2.60
2019-05-11T05:45:28.438Z,2.67
2019-05-11T05:47:04.555Z,3.63
2019-05-11T05:48:39.242Z,2.60
2019-05-11T05:50:14.327Z,2.37
2019-05-11T05:51:49.009Z,2.60
2019-05-11T05:53:23.989Z,2.40
2019-05-11T05:54:58.667Z,2.23
2019-05-11T05:56:33.529Z,2.83
2019-05-11T05:58:08.285Z,2.33
2019-05-11T05:59:43.613Z,2.47
2019-05-11T06:01:18.384Z,2.57
2019-05-11T06:02:54.281Z,2.40
2019-05-11T06:04:29.045Z,2.00
2019-05-11T06:06:03.889Z,2.30
2019-05-11T06:07:38.543Z,2.13
2019-05-11T06:09:13.435Z,2.53
2019-05-11T06:10:48.182Z,2.27
2019-05-11T06:12:23.032Z,2.33
2019-05-11T06:13:57.695Z,2.10
2019-05-11T06:15:32.627Z,1.80
2019-05-11T06:17:07.358Z,2.50
2019-05-11T06:18:42.234Z,2.27
2019-05-11T06:20:17.243Z,2.70
2019-05-11T06:21:52.107Z,2.43
2019-05-11T06:23:26.830Z,2.23
2019-05-11T06:25:01.684Z,2.70
2019-05-11T06:26:36.369Z,2.47
2019-05-11T06:28:11.269Z,3.13
2019-05-11T06:29:45.914Z,2.77
2019-05-11T06:31:20.743Z,2.70
2019-05-11T06:32:56.491Z,2.10
2019-05-11T06:34:31.321Z,2.67
2019-05-11T06:36:05.970Z,2.53
2019-05-11T06:37:40.806Z,2.73
2019-05-11T06:39:15.458Z,2.63
2019-05-11T06:40:50.288Z,2.53
2019-05-11T06:42:24.941Z,2.90
2019-05-11T06:44:02.223Z,2.30
2019-05-11T06:45:36.158Z,2.10
2019-05-11T06:47:11.008Z,2.37
2019-05-11T06:48:45.736Z,2.27
2019-05-11T06:50:20.607Z,2.53
2019-05-11T06:51:56.237Z,2.10
2019-05-11T06:53:31.060Z,2.50
2019-05-11T06:55:06.037Z,2.10
2019-05-11T06:56:40.884Z,2.03
2019-05-11T06:58:15.536Z,2.27
2019-05-11T06:59:50.383Z,2.37
2019-05-11T07:01:25.048Z,2.50
2019-05-11T07:02:59.882Z,2.30
2019-05-11T07:04:39.799Z,2.53
2019-05-11T07:06:14.655Z,2.20
2019-05-11T07:07:49.364Z,2.23
2019-05-11T07:09:24.298Z,1.90
2019-05-11T07:10:58.958Z,2.40
2019-05-11T07:12:33.811Z,2.30
2019-05-11T07:14:19.899Z,2.97
2019-05-11T07:15:46.252Z,2.10
2019-05-11T07:17:20.903Z,2.40
2019-05-11T07:18:55.736Z,2.23
2019-05-11T07:20:30.370Z,2.07
2019-05-11T07:22:05.274Z,1.90
2019-05-11T07:23:39.924Z,2.10
2019-05-11T07:25:14.859Z,2.40
2019-05-11T07:26:49.530Z,1.80
2019-05-11T07:28:24.385Z,2.00
2019-05-11T07:29:59.340Z,1.80
2019-05-11T07:31:34.155Z,1.90
2019-05-11T07:33:08.969Z,2.20
2019-05-11T07:34:43.885Z,1.77
2019-05-11T07:36:18.545Z,1.70
2019-05-11T07:37:54.357Z,2.07
2019-05-11T07:39:29.534Z,2.40
2019-05-11T07:41:04.378Z,2.87
2019-05-11T07:42:39.052Z,2.30
2019-05-11T07:44:14.891Z,1.80
2019-05-11T07:45:49.530Z,2.43
2019-05-11T07:47:24.368Z,1.80
2019-05-11T07:48:59.035Z,2.17
2019-05-11T07:50:33.929Z,2.30
2019-05-11T07:52:08.596Z,1.70
2019-05-11T07:53:43.441Z,1.90
2019-05-11T07:55:19.111Z,1.90
2019-05-11T07:56:54.196Z,2.27
2019-05-11T07:58:28.852Z,1.70
2019-05-11T08:00:03.727Z,1.97
2019-05-11T08:01:38.922Z,2.07
2019-05-11T08:03:14.861Z,1.80
2019-05-11T08:04:49.529Z,1.83
2019-05-11T08:06:24.392Z,2.00
2019-05-11T08:08:01.117Z,2.03
2019-05-11T08:09:38.015Z,1.90
2019-05-11T08:11:12.322Z,2.13
2019-05-11T08:12:48.128Z,2.27
2019-05-11T08:14:22.911Z,2.70
2019-05-11T08:15:58.801Z,2.00
2019-05-11T08:17:33.548Z,1.83
2019-05-11T08:19:10.696Z,2.27
2019-05-11T08:20:44.866Z,2.10
2019-05-11T08:22:22.711Z,2.30
2019-05-11T08:23:58.543Z,2.27
2019-05-11T08:25:33.151Z,1.77
2019-05-11T08:27:08.503Z,2.30
2019-05-11T08:28:43.341Z,2.03
2019-05-11T08:30:20.022Z,1.90
2019-05-11T08:31:58.161Z,1.80
2019-05-11T08:33:33.810Z,2.00
2019-05-11T08:35:09.921Z,2.40
2019-05-11T08:36:44.564Z,2.43
2019-05-11T08:38:19.570Z,2.50
2019-05-11T08:39:54.288Z,2.27
2019-05-11T08:41:29.193Z,2.50
2019-05-11T08:43:03.852Z,2.07
2019-05-11T08:44:38.727Z,2.57
2019-05-11T08:46:13.470Z,2.67
2019-05-11T08:47:48.672Z,2.70
2019-05-11T08:49:23.367Z,2.97
2019-05-11T08:50:58.407Z,2.47
2019-05-11T08:52:32.980Z,2.43
2019-05-11T08:54:08.922Z,2.17
2019-05-11T08:55:43.855Z,2.87
2019-05-11T08:57:18.709Z,2.20
2019-05-11T08:58:55.333Z,2.10
2019-05-11T09:00:30.100Z,2.50
2019-05-11T09:02:04.832Z,1.80
2019-05-11T09:03:40.657Z,2.07
2019-05-11T09:05:15.408Z,2.07
2019-05-11T09:06:50.241Z,2.17
2019-05-11T09:08:24.913Z,2.03
2019-05-11T09:09:59.748Z,2.67
2019-05-11T09:11:34.408Z,2.53
2019-05-11T09:13:09.251Z,2.70
2019-05-11T09:14:43.888Z,2.67
2019-05-11T09:16:19.239Z,2.33
2019-05-11T09:18:13.611Z,2.10
2019-05-11T09:19:48.265Z,2.73
2019-05-11T09:21:23.077Z,2.80
2019-05-11T09:22:58.904Z,2.60
2019-05-11T09:24:34.041Z,2.57
2019-05-11T09:26:08.990Z,2.40
2019-05-11T09:28:02.254Z,2.40
2019-05-11T09:29:38.716Z,2.73
2019-05-11T09:31:13.622Z,2.73
2019-05-11T09:32:48.354Z,2.63
2019-05-11T09:34:24.127Z,2.63
2019-05-11T09:35:58.891Z,2.97
2019-05-11T09:37:33.740Z,2.73
2019-05-11T09:39:08.783Z,2.90
2019-05-11T09:40:43.608Z,2.47
2019-05-11T09:42:18.262Z,2.47
2019-05-11T09:43:53.082Z,2.60
2019-05-11T09:45:27.963Z,3.10
2019-05-11T09:47:02.915Z,2.80
2019-05-11T09:48:37.997Z,2.77
2019-05-11T09:50:13.643Z,2.90
2019-05-11T09:51:48.694Z,2.80
2019-05-11T09:53:23.536Z,2.53
2019-05-11T09:54:58.245Z,2.57
2019-05-11T09:56:33.135Z,2.80
2019-05-11T09:58:08.629Z,2.63
2019-05-11T09:59:43.572Z,3.43
2019-05-11T10:01:18.575Z,2.77
2019-05-11T10:02:54.569Z,2.77
2019-05-11T10:04:29.286Z,2.67
2019-05-11T10:06:04.119Z,2.87
2019-05-11T10:07:38.751Z,2.43
2019-05-11T10:09:13.631Z,3.00
2019-05-11T10:10:48.893Z,2.97
2019-05-11T10:12:23.862Z,2.73
2019-05-11T10:13:58.501Z,2.90
2019-05-11T10:15:33.357Z,2.97
2019-05-11T10:17:08.023Z,2.90
2019-05-11T10:18:42.870Z,3.00
2019-05-11T10:20:18.314Z,3.07
2019-05-11T10:21:53.291Z,2.60
2019-05-11T10:23:28.201Z,2.73
2019-05-11T10:25:04.196Z,2.50
2019-05-11T10:26:39.392Z,2.50
2019-05-11T10:28:14.442Z,2.67
2019-05-11T10:29:49.071Z,3.53
2019-05-11T10:31:23.945Z,2.57
2019-05-11T10:32:58.674Z,2.80
2019-05-11T10:34:33.557Z,2.77
2019-05-11T10:36:08.455Z,2.80
2019-05-11T10:37:43.378Z,3.33
2019-05-11T10:39:18.782Z,2.63
2019-05-11T10:40:53.722Z,3.40
2019-05-11T10:42:37.739Z,2.57
2019-05-11T10:44:12.015Z,2.80
2019-05-11T10:45:48.330Z,2.90
2019-05-11T10:47:23.380Z,2.70
2019-05-11T10:48:59.203Z,3.00
2019-05-11T10:50:34.126Z,2.77
2019-05-11T10:52:09.786Z,2.50
2019-05-11T10:53:48.256Z,2.37
2019-05-11T10:55:21.221Z,2.50
2019-05-11T10:56:57.937Z,2.80
2019-05-11T10:58:32.504Z,2.40
2019-05-11T11:00:08.545Z,2.60
2019-05-11T11:01:43.204Z,2.90
2019-05-11T11:03:48.131Z,2.37
2019-05-11T11:05:22.545Z,2.83
2019-05-11T11:06:59.177Z,2.77
2019-05-11T11:08:33.726Z,2.50
2019-05-11T11:10:09.125Z,2.33
2019-05-11T11:11:44.065Z,2.90
2019-05-11T11:13:18.970Z,3.00
2019-05-11T11:14:53.829Z,2.70
2019-05-11T11:16:36.863Z,2.70
2019-05-11T11:18:08.427Z,2.93
2019-05-11T11:19:42.608Z,2.97
2019-05-11T11:21:22.505Z,2.90
2019-05-11T11:22:53.951Z,3.57
2019-05-11T11:24:28.891Z,3.73
2019-05-11T11:26:03.854Z,3.10
2019-05-11T11:27:38.755Z,3.67
2019-05-11T11:29:13.465Z,2.83
2019-05-11T11:30:48.302Z,2.73
2019-05-11T11:32:22.971Z,2.70
2019-05-11T11:33:58.533Z,2.70
2019-05-11T11:35:47.724Z,2.73
2019-05-11T11:37:22.721Z,3.30
2019-05-11T11:38:58.373Z,2.90
2019-05-11T11:40:33.581Z,2.97
2019-05-11T11:42:08.462Z,3.30
2019-05-11T11:43:43.395Z,3.63
2019-05-11T11:45:18.545Z,3.80
2019-05-11T11:46:55.321Z,3.60
2019-05-11T11:48:29.684Z,3.43
2019-05-11T11:50:04.780Z,3.43
2019-05-11T11:51:39.479Z,3.57
2019-05-11T11:53:14.338Z,3.03
2019-05-11T11:54:49.005Z,3.20
2019-05-11T11:56:23.824Z,3.23
2019-05-11T11:57:58.973Z,2.97
2019-05-11T11:59:35.088Z,2.63
2019-05-11T12:01:09.729Z,2.60
2019-05-11T12:02:44.586Z,2.93
2019-05-11T12:04:19.290Z,2.53
2019-05-11T12:05:54.147Z,2.80
2019-05-11T12:07:28.791Z,2.67
2019-05-11T12:09:05.684Z,2.50
2019-05-11T12:10:40.338Z,3.10
2019-05-11T12:12:15.170Z,2.90
2019-05-11T12:13:49.825Z,3.50
2019-05-11T12:15:24.741Z,3.30
2019-05-11T12:17:06.979Z,2.83
2019-05-11T12:18:37.904Z,2.80
2019-05-11T12:20:12.273Z,2.93
2019-05-11T12:21:48.399Z,3.23
2019-05-11T12:23:23.136Z,3.00
2019-05-11T12:24:58.922Z,3.53
2019-05-11T12:26:33.808Z,3.03
2019-05-11T12:28:08.648Z,3.43
2019-05-11T12:29:43.343Z,3.60
2019-05-11T12:31:18.642Z,3.20
2019-05-11T12:32:53.431Z,3.20
2019-05-11T12:34:28.576Z,2.97
2019-05-11T12:36:03.727Z,3.10
2019-05-11T12:37:38.657Z,3.53
2019-05-11T12:39:13.331Z,3.27
2019-05-11T12:40:49.366Z,3.53
2019-05-11T12:42:24.059Z,2.93
2019-05-11T12:43:58.917Z,3.50
2019-05-11T12:45:33.564Z,3.43
2019-05-11T12:47:21.135Z,3.57
2019-05-11T12:48:44.834Z,3.40
2019-05-11T12:50:20.010Z,2.90
2019-05-11T12:51:54.665Z,3.93
2019-05-11T12:53:29.538Z,2.63
2019-05-11T12:55:04.438Z,3.40
2019-05-11T12:56:39.288Z,3.57
2019-05-11T12:58:14.714Z,3.30
2019-05-11T12:59:49.534Z,3.40
2019-05-11T13:01:24.184Z,3.47
2019-05-11T13:02:59.020Z,3.17
2019-05-11T13:04:33.736Z,3.60
2019-05-11T13:06:08.636Z,3.27
2019-05-11T13:07:43.278Z,3.17
2019-05-11T13:09:18.424Z,3.03
2019-05-11T13:10:53.166Z,3.30
2019-05-11T13:12:28.038Z,2.60
2019-05-11T13:14:02.765Z,3.20
2019-05-11T13:15:38.895Z,2.97
2019-05-11T13:17:13.604Z,2.80
2019-05-11T13:18:48.835Z,2.73
2019-05-11T13:20:23.663Z,2.70
2019-05-11T13:21:59.098Z,2.77
2019-05-11T13:23:33.828Z,2.93
2019-05-11T13:25:08.925Z,3.30
2019-05-11T13:26:45.165Z,3.00
2019-05-11T13:28:20.000Z,2.50
2019-05-11T13:29:54.636Z,2.93
2019-05-11T13:31:29.503Z,2.93
2019-05-11T13:33:04.195Z,3.13
2019-05-11T13:34:39.022Z,3.10
2019-05-11T13:36:13.773Z,2.77
2019-05-11T13:37:48.643Z,3.40
2019-05-11T13:39:23.295Z,3.30
2019-05-11T13:40:59.031Z,2.80
2019-05-11T13:42:33.992Z,2.77
2019-05-11T13:44:09.007Z,2.90
2019-05-11T13:45:43.667Z,3.07
2019-05-11T13:47:18.513Z,3.10
2019-05-11T13:48:53.165Z,3.33
2019-05-11T13:50:29.646Z,3.30
2019-05-11T13:52:04.511Z,2.87
2019-05-11T13:53:39.394Z,3.47
2019-05-11T13:55:14.243Z,3.07
2019-05-11T13:56:49.070Z,2.93
2019-05-11T13:58:23.794Z,3.10
2019-05-11T13:59:58.659Z,3.17
2019-05-11T14:01:33.288Z,3.70
2019-05-11T14:03:09.196Z,2.83
2019-05-11T14:04:44.023Z,3.10
2019-05-11T14:06:18.862Z,2.97
2019-05-11T14:07:54.571Z,2.43
2019-05-11T14:09:29.481Z,3.00
2019-05-11T14:11:04.214Z,3.00
2019-05-11T14:12:39.028Z,2.60
2019-05-11T14:14:13.688Z,2.80
2019-05-11T14:15:48.552Z,2.90
2019-05-11T14:17:23.207Z,3.00
2019-05-11T14:18:58.058Z,2.67
2019-05-11T14:20:33.150Z,2.70
2019-05-11T14:22:08.629Z,2.50
2019-05-11T14:23:43.556Z,2.60
2019-05-11T14:25:18.878Z,3.00
2019-05-11T14:26:53.675Z,3.23
2019-05-11T14:28:28.640Z,3.30
2019-05-11T14:30:04.269Z,2.70
2019-05-11T14:31:40.767Z,2.73
2019-05-11T14:33:18.104Z,2.80
2019-05-11T14:34:52.694Z,3.30
2019-05-11T14:36:28.194Z,3.70
2019-05-11T14:38:03.281Z,2.77
2019-05-11T14:39:38.421Z,2.97
2019-05-11T14:41:14.373Z,4.30
2019-05-11T14:42:49.186Z,3.17
2019-05-11T14:44:25.004Z,3.80
2019-05-11T14:45:59.696Z,4.03
2019-05-11T14:47:34.523Z,3.13
2019-05-11T14:49:09.203Z,3.00
2019-05-11T14:50:44.011Z,2.60
2019-05-11T14:52:18.942Z,2.83
2019-05-11T14:53:56.762Z,2.70
2019-05-11T14:55:30.458Z,2.73
2019-05-11T14:57:05.317Z,2.83
2019-05-11T14:58:39.979Z,2.70
2019-05-11T15:00:15.265Z,2.30
2019-05-11T15:01:50.042Z,2.27
2019-05-11T15:03:24.904Z,2.30
2019-05-11T15:04:59.532Z,2.47
2019-05-11T15:06:34.362Z,2.10
2019-05-11T15:08:08.981Z,2.60
2019-05-11T15:09:43.798Z,4.53
2019-05-11T15:11:19.180Z,5.00
2019-05-11T15:12:55.227Z,5.00
2019-05-11T15:14:29.864Z,3.27
2019-05-11T15:16:04.784Z,2.70
2019-05-11T15:17:39.724Z,2.90
2019-05-11T15:19:14.605Z,2.93
2019-05-11T15:20:49.367Z,2.53
2019-05-11T15:22:24.209Z,2.60
2019-05-11T15:23:58.850Z,2.70
2019-05-11T15:25:33.697Z,2.83
2019-05-11T15:27:08.314Z,2.20
2019-05-11T15:28:43.145Z,2.93
2019-05-11T15:30:18.494Z,2.47
2019-05-11T15:31:53.450Z,2.40
2019-05-11T15:33:28.122Z,2.47
2019-05-11T15:35:02.966Z,1.90
2019-05-11T15:36:38.658Z,2.70
2019-05-11T15:38:13.812Z,2.67
2019-05-11T15:39:48.504Z,3.20
2019-05-11T15:41:23.288Z,3.10
2019-05-11T15:42:58.519Z,3.10
2019-05-11T15:44:33.690Z,3.13
2019-05-11T15:46:08.426Z,2.80
2019-05-11T15:47:43.287Z,2.87
2019-05-11T15:49:18.225Z,3.13
2019-05-11T15:50:52.996Z,2.53
2019-05-11T15:52:27.653Z,2.20
2019-05-11T15:54:02.449Z,2.30
2019-05-11T15:55:39.381Z,2.27
2019-05-11T15:57:13.656Z,2.60
2019-05-11T15:58:48.724Z,2.50
2019-05-11T16:00:23.691Z,2.60
2019-05-11T16:01:58.345Z,2.20
2019-05-11T16:03:33.252Z,2.60
2019-05-11T16:05:08.944Z,2.47
2019-05-11T16:06:43.814Z,2.07
2019-05-11T16:08:18.982Z,2.37
2019-05-11T16:09:53.927Z,2.53
2019-05-11T16:11:29.010Z,2.20
2019-05-11T16:13:04.147Z,2.20
2019-05-11T16:14:39.009Z,2.20
2019-05-11T16:16:15.255Z,2.63
2019-05-11T16:17:50.544Z,2.57
2019-05-11T16:19:25.563Z,2.40
2019-05-11T16:21:02.321Z,2.50
2019-05-11T16:22:38.523Z,2.40
2019-05-11T16:24:13.589Z,2.43
2019-05-11T16:25:48.999Z,2.40
2019-05-11T16:27:24.010Z,2.60
2019-05-11T16:29:00.605Z,2.33
2019-05-11T16:30:37.875Z,2.73
2019-05-11T16:32:12.912Z,2.53
2019-05-11T16:33:48.387Z,2.67
2019-05-11T16:35:25.156Z,2.37
2019-05-11T16:36:59.867Z,2.40
2019-05-11T16:38:34.896Z,2.57
2019-05-11T16:40:10.260Z,2.10
2019-05-11T16:41:45.380Z,2.57
2019-05-11T16:43:20.228Z,2.17
2019-05-11T16:44:57.613Z,2.13
2019-05-11T16:46:31.767Z,2.07
2019-05-11T16:48:08.013Z,2.50
2019-05-11T16:49:42.911Z,2.60
2019-05-11T16:51:17.866Z,2.27
2019-05-11T16:52:52.618Z,2.90
2019-05-11T16:54:28.055Z,2.30
2019-05-11T16:56:02.755Z,3.10
2019-05-11T16:57:38.221Z,2.63
2019-05-11T16:59:12.934Z,2.67
2019-05-11T17:00:48.984Z,2.47
2019-05-11T17:04:52.321Z,2.20
2019-05-11T17:06:28.535Z,2.60
2019-05-11T17:08:03.449Z,2.80
2019-05-11T17:09:38.300Z,2.33
2019-05-11T17:11:12.958Z,2.63
2019-05-11T17:12:48.665Z,2.40
2019-05-11T17:14:23.632Z,2.20
2019-05-11T17:15:58.541Z,2.07
2019-05-11T17:17:33.185Z,2.53
2019-05-11T17:19:08.324Z,2.27
2019-05-11T17:20:43.024Z,2.40
2019-05-11T17:22:18.996Z,1.90
2019-05-11T17:23:53.784Z,2.00
2019-05-11T17:25:28.904Z,1.90
2019-05-11T17:27:03.683Z,2.07
2019-05-11T17:28:39.612Z,1.93
2019-05-11T17:30:14.443Z,2.27
2019-05-11T17:31:49.292Z,2.23
2019-05-11T17:33:23.941Z,1.90
2019-05-11T17:34:58.763Z,1.63
2019-05-11T17:36:33.445Z,2.00
2019-05-11T17:38:08.267Z,2.30
2019-05-11T17:39:42.989Z,1.70
2019-05-11T17:41:17.834Z,1.37
2019-05-11T17:42:54.227Z,1.90
2019-05-11T17:44:29.158Z,1.50
2019-05-11T17:46:03.817Z,1.47
2019-05-11T17:47:38.936Z,1.67
2019-05-11T17:49:13.593Z,1.57
2019-05-11T17:50:48.530Z,1.33
2019-05-11T17:52:23.189Z,1.60
2019-05-11T17:53:59.724Z,1.20
2019-05-11T17:55:34.565Z,1.40
2019-05-11T17:57:09.546Z,1.40
2019-05-11T17:58:44.221Z,1.13
2019-05-11T18:00:20.887Z,1.73
2019-05-11T18:01:55.538Z,1.33
2019-05-11T18:03:30.436Z,1.70
2019-05-11T18:05:05.416Z,1.20
2019-05-11T18:06:40.268Z,1.30
2019-05-11T18:08:14.921Z,1.60
2019-05-11T18:09:49.768Z,1.40
2019-05-11T18:11:24.409Z,1.27
2019-05-11T18:12:59.236Z,1.40
2019-05-11T18:14:36.015Z,1.30
2019-05-11T18:16:11.494Z,1.30
2019-05-11T18:17:48.490Z,1.50
2019-05-11T18:19:22.675Z,1.50
2019-05-11T18:20:58.048Z,1.47
2019-05-11T18:22:32.949Z,1.60
2019-05-11T18:24:09.160Z,1.20
2019-05-11T18:25:44.081Z,1.90
2019-05-11T18:27:18.744Z,1.87
2019-05-11T18:28:53.580Z,1.50
2019-05-11T18:30:29.353Z,1.33
2019-05-11T18:32:05.592Z,1.10
2019-05-11T18:33:40.246Z,1.40
2019-05-11T18:35:15.157Z,1.93
2019-05-11T18:36:49.825Z,1.40
2019-05-11T18:38:24.663Z,1.60
2019-05-11T18:39:59.357Z,1.30
2019-05-11T18:41:34.225Z,1.10
2019-05-11T18:43:08.861Z,1.50
2019-05-11T18:44:43.681Z,1.60
2019-05-11T18:46:18.319Z,1.57
2019-05-11T18:47:54.117Z,1.60
2019-05-11T18:49:28.827Z,1.27
2019-05-11T18:51:03.684Z,1.20
2019-05-11T18:52:38.470Z,1.10
2019-05-11T18:54:13.324Z,1.13
2019-05-11T18:55:48.685Z,1.07
2019-05-11T18:57:23.608Z,1.60
2019-05-11T18:58:58.451Z,1.47
2019-05-11T19:00:33.253Z,1.50
2019-05-11T19:02:08.539Z,1.40
2019-05-11T19:03:43.560Z,1.30
2019-05-11T19:05:18.331Z,1.30
2019-05-11T19:06:53.306Z,1.63
2019-05-11T19:08:28.208Z,1.53
2019-05-11T19:10:03.148Z,1.63
2019-05-11T19:11:38.442Z,1.60
2019-05-11T19:13:22.708Z,1.53
2019-05-11T19:14:58.700Z,1.23
2019-05-11T19:16:45.546Z,1.60
2019-05-11T19:18:20.261Z,1.80
2019-05-11T19:19:55.097Z,2.20
2019-05-11T19:21:29.825Z,1.90
2019-05-11T19:23:04.756Z,2.27
2019-05-11T19:24:39.397Z,1.73
2019-05-11T19:26:14.234Z,1.87
2019-05-11T19:27:50.738Z,1.70
2019-05-11T19:29:25.490Z,1.83
2019-05-11T19:31:00.147Z,2.00
2019-05-11T19:32:35.043Z,2.33
2019-05-11T19:34:09.702Z,1.60
2019-05-11T19:35:44.508Z,1.87
2019-05-11T19:37:19.141Z,1.83
2019-05-11T19:38:53.962Z,1.63
2019-05-11T19:40:28.600Z,1.60
2019-05-11T19:42:03.423Z,1.70
2019-05-11T19:43:38.289Z,1.73
2019-05-11T19:45:13.293Z,2.00
2019-05-11T19:46:47.960Z,1.50
2019-05-11T19:48:22.793Z,2.47
2019-05-11T19:49:58.238Z,2.00
2019-05-11T19:51:33.142Z,1.90
2019-05-11T19:53:08.472Z,1.80
2019-05-11T19:54:43.437Z,2.10
2019-05-11T19:56:18.383Z,1.87
2019-05-11T19:57:53.463Z,2.03
2019-05-11T19:59:28.170Z,1.53
2019-05-11T20:01:33.830Z,1.90
2019-05-11T20:03:09.239Z,1.77
2019-05-11T20:04:44.083Z,2.00
2019-05-11T20:06:19.180Z,1.70
2019-05-11T20:07:53.806Z,1.80
2019-05-11T20:09:28.632Z,2.00
2019-05-11T20:11:04.403Z,2.13
2019-05-11T20:12:41.811Z,1.97
2019-05-11T20:14:15.596Z,2.37
2019-05-11T20:15:50.408Z,2.00
2019-05-11T20:17:25.064Z,1.60
2019-05-11T20:18:59.911Z,2.00
2019-05-11T20:20:34.565Z,2.00
2019-05-11T20:22:09.395Z,3.07
2019-05-11T20:23:44.028Z,1.70
2019-05-11T20:25:19.450Z,1.83
2019-05-11T20:26:54.173Z,1.60
2019-05-11T20:28:28.991Z,2.07
2019-05-11T20:30:03.784Z,1.70
2019-05-11T20:31:38.965Z,1.93
2019-05-11T20:33:14.616Z,1.80
2019-05-11T20:34:51.275Z,1.60
2019-05-11T20:36:25.947Z,2.00
2019-05-11T20:38:00.769Z,1.70
2019-05-11T20:39:37.779Z,1.63
2019-05-11T20:41:12.005Z,1.90
2019-05-11T20:42:48.502Z,1.43
2019-05-11T20:44:23.194Z,1.77
2019-05-11T20:45:57.833Z,1.90
2019-05-11T20:47:32.661Z,2.10
2019-05-11T20:49:07.373Z,1.53
2019-05-11T20:50:42.179Z,1.80
2019-05-11T20:52:17.841Z,1.70
2019-05-11T20:53:52.902Z,1.60
2019-05-11T20:55:28.439Z,1.40
2019-05-11T20:57:03.466Z,1.60
2019-05-11T20:58:59.352Z,1.90
2019-05-11T21:00:34.013Z,1.23
2019-05-11T21:02:09.402Z,1.37
2019-05-11T21:03:44.384Z,1.30
2019-05-11T21:05:19.075Z,1.57
2019-05-11T21:06:53.920Z,1.43
2019-05-11T21:08:28.576Z,1.40
2019-05-11T21:10:05.422Z,1.43